sensor_id;sensor_type;location;lat;lon;timestamp;P1;durP1;ratioP1;P2;durP2;ratioP2
43801;SDS011;29429;51.074;13.764;2022-08-25T00:00:12;20.65;;;15.85;;
43801;SDS011;29429;51.074;13.764;2022-08-25T00:02:39;19.40;;;14.50;;
43801;SDS011;29429;51.074;13.764;2022-08-25T00:05:20;16.88;;;14.23;;
43801;SDS011;29429;51.074;13.764;2022-08-25T00:07:47;19.13;;;14.90;;
43801;SDS011;29429;51.074;13.764;2022-08-25T00:10:14;18.17;;;14.00;;
43801;SDS011;29429;51.074;13.764;2022-08-25T00:12:41;17.52;;;14.90;;
43801;SDS011;29429;51.074;13.764;2022-08-25T00:15:08;20.35;;;14.60;;
43801;SDS011;29429;51.074;13.764;2022-08-25T00:17:36;20.52;;;15.13;;
43801;SDS011;29429;51.074;13.764;2022-08-25T00:20:03;16.55;;;14.18;;
43801;SDS011;29429;51.074;13.764;2022-08-25T00:22:34;18.70;;;13.82;;
43801;SDS011;29429;51.074;13.764;2022-08-25T00:25:01;20.83;;;14.05;;
43801;SDS011;29429;51.074;13.764;2022-08-25T00:27:29;19.33;;;13.52;;
43801;SDS011;29429;51.074;13.764;2022-08-25T00:29:56;16.77;;;14.00;;
43801;SDS011;29429;51.074;13.764;2022-08-25T00:32:23;18.15;;;12.70;;
43801;SDS011;29429;51.074;13.764;2022-08-25T00:34:50;15.52;;;13.07;;
43801;SDS011;29429;51.074;13.764;2022-08-25T00:37:18;17.10;;;13.93;;
43801;SDS011;29429;51.074;13.764;2022-08-25T00:39:45;19.63;;;13.45;;
43801;SDS011;29429;51.074;13.764;2022-08-25T00:42:12;17.17;;;13.98;;
43801;SDS011;29429;51.074;13.764;2022-08-25T00:44:41;16.30;;;13.45;;
43801;SDS011;29429;51.074;13.764;2022-08-25T00:47:09;15.50;;;13.48;;
43801;SDS011;29429;51.074;13.764;2022-08-25T00:52:28;15.27;;;13.13;;
43801;SDS011;29429;51.074;13.764;2022-08-25T00:55:08;19.27;;;14.10;;
43801;SDS011;29429;51.074;13.764;2022-08-25T00:57:54;16.52;;;13.88;;
43801;SDS011;29429;51.074;13.764;2022-08-25T01:00:35;19.45;;;14.18;;
43801;SDS011;29429;51.074;13.764;2022-08-25T01:03:06;19.50;;;14.25;;
43801;SDS011;29429;51.074;13.764;2022-08-25T01:05:33;19.98;;;14.18;;
43801;SDS011;29429;51.074;13.764;2022-08-25T01:08:02;16.65;;;13.68;;
43801;SDS011;29429;51.074;13.764;2022-08-25T01:10:32;17.20;;;13.70;;
43801;SDS011;29429;51.074;13.764;2022-08-25T01:13:08;18.05;;;14.05;;
43801;SDS011;29429;51.074;13.764;2022-08-25T01:15:44;16.40;;;14.15;;
43801;SDS011;29429;51.074;13.764;2022-08-25T01:18:13;16.95;;;14.13;;
43801;SDS011;29429;51.074;13.764;2022-08-25T01:20:41;16.55;;;14.68;;
43801;SDS011;29429;51.074;13.764;2022-08-25T01:23:08;24.20;;;15.20;;
43801;SDS011;29429;51.074;13.764;2022-08-25T01:28:35;18.98;;;13.93;;
43801;SDS011;29429;51.074;13.764;2022-08-25T01:31:03;18.30;;;14.30;;
43801;SDS011;29429;51.074;13.764;2022-08-25T01:33:49;15.70;;;13.65;;
43801;SDS011;29429;51.074;13.764;2022-08-25T01:36:17;19.00;;;14.60;;
43801;SDS011;29429;51.074;13.764;2022-08-25T01:38:45;18.48;;;13.57;;
43801;SDS011;29429;51.074;13.764;2022-08-25T01:41:14;18.15;;;14.60;;
43801;SDS011;29429;51.074;13.764;2022-08-25T01:43:57;17.15;;;14.50;;
43801;SDS011;29429;51.074;13.764;2022-08-25T01:46:24;19.58;;;14.18;;
43801;SDS011;29429;51.074;13.764;2022-08-25T01:48:52;15.93;;;13.57;;
43801;SDS011;29429;51.074;13.764;2022-08-25T01:51:20;17.02;;;14.48;;
43801;SDS011;29429;51.074;13.764;2022-08-25T01:53:53;22.48;;;15.88;;
43801;SDS011;29429;51.074;13.764;2022-08-25T01:56:20;17.88;;;14.52;;
43801;SDS011;29429;51.074;13.764;2022-08-25T01:58:47;18.88;;;15.60;;
43801;SDS011;29429;51.074;13.764;2022-08-25T02:01:16;19.98;;;15.52;;
43801;SDS011;29429;51.074;13.764;2022-08-25T02:03:50;17.55;;;14.10;;
43801;SDS011;29429;51.074;13.764;2022-08-25T02:06:21;21.77;;;15.38;;
43801;SDS011;29429;51.074;13.764;2022-08-25T02:08:57;18.00;;;14.52;;
43801;SDS011;29429;51.074;13.764;2022-08-25T02:11:30;21.13;;;13.85;;
43801;SDS011;29429;51.074;13.764;2022-08-25T02:14:00;17.92;;;14.90;;
43801;SDS011;29429;51.074;13.764;2022-08-25T02:16:28;20.77;;;13.85;;
43801;SDS011;29429;51.074;13.764;2022-08-25T02:18:59;20.92;;;13.80;;
43801;SDS011;29429;51.074;13.764;2022-08-25T02:21:27;19.55;;;14.93;;
43801;SDS011;29429;51.074;13.764;2022-08-25T02:23:54;19.73;;;16.00;;
43801;SDS011;29429;51.074;13.764;2022-08-25T02:26:22;24.75;;;15.95;;
43801;SDS011;29429;51.074;13.764;2022-08-25T02:28:50;18.80;;;16.25;;
43801;SDS011;29429;51.074;13.764;2022-08-25T02:31:19;18.08;;;15.07;;
43801;SDS011;29429;51.074;13.764;2022-08-25T02:33:50;17.50;;;13.93;;
43801;SDS011;29429;51.074;13.764;2022-08-25T02:36:18;16.08;;;14.10;;
43801;SDS011;29429;51.074;13.764;2022-08-25T02:38:45;18.60;;;14.65;;
43801;SDS011;29429;51.074;13.764;2022-08-25T02:41:14;20.88;;;14.77;;
43801;SDS011;29429;51.074;13.764;2022-08-25T02:43:56;18.83;;;15.43;;
43801;SDS011;29429;51.074;13.764;2022-08-25T02:46:23;17.92;;;14.85;;
43801;SDS011;29429;51.074;13.764;2022-08-25T02:48:50;22.55;;;15.68;;
43801;SDS011;29429;51.074;13.764;2022-08-25T02:51:19;21.98;;;16.35;;
43801;SDS011;29429;51.074;13.764;2022-08-25T02:53:48;22.35;;;16.60;;
43801;SDS011;29429;51.074;13.764;2022-08-25T02:56:16;24.88;;;16.17;;
43801;SDS011;29429;51.074;13.764;2022-08-25T02:58:45;19.10;;;15.50;;
43801;SDS011;29429;51.074;13.764;2022-08-25T03:01:13;21.17;;;17.25;;
43801;SDS011;29429;51.074;13.764;2022-08-25T03:03:43;21.73;;;16.98;;
43801;SDS011;29429;51.074;13.764;2022-08-25T03:06:13;21.15;;;16.45;;
43801;SDS011;29429;51.074;13.764;2022-08-25T03:08:48;23.95;;;16.65;;
43801;SDS011;29429;51.074;13.764;2022-08-25T03:11:17;19.67;;;15.75;;
43801;SDS011;29429;51.074;13.764;2022-08-25T03:13:45;23.13;;;16.60;;
43801;SDS011;29429;51.074;13.764;2022-08-25T03:16:15;22.95;;;16.00;;
43801;SDS011;29429;51.074;13.764;2022-08-25T03:18:43;22.35;;;16.63;;
43801;SDS011;29429;51.074;13.764;2022-08-25T03:21:10;18.95;;;14.73;;
43801;SDS011;29429;51.074;13.764;2022-08-25T03:23:38;22.70;;;16.23;;
43801;SDS011;29429;51.074;13.764;2022-08-25T03:26:06;20.10;;;15.82;;
43801;SDS011;29429;51.074;13.764;2022-08-25T03:28:52;21.70;;;16.45;;
43801;SDS011;29429;51.074;13.764;2022-08-25T03:31:21;23.35;;;18.08;;
43801;SDS011;29429;51.074;13.764;2022-08-25T03:33:50;23.92;;;17.13;;
43801;SDS011;29429;51.074;13.764;2022-08-25T03:36:17;20.83;;;17.52;;
43801;SDS011;29429;51.074;13.764;2022-08-25T03:38:44;22.73;;;17.33;;
43801;SDS011;29429;51.074;13.764;2022-08-25T03:41:13;22.10;;;17.95;;
43801;SDS011;29429;51.074;13.764;2022-08-25T03:43:43;22.63;;;17.48;;
43801;SDS011;29429;51.074;13.764;2022-08-25T03:46:19;28.05;;;17.63;;
43801;SDS011;29429;51.074;13.764;2022-08-25T03:48:54;20.42;;;16.70;;
43801;SDS011;29429;51.074;13.764;2022-08-25T03:51:33;19.70;;;16.27;;
43801;SDS011;29429;51.074;13.764;2022-08-25T03:54:05;19.92;;;16.08;;
43801;SDS011;29429;51.074;13.764;2022-08-25T03:56:34;26.25;;;17.15;;
43801;SDS011;29429;51.074;13.764;2022-08-25T03:59:01;22.95;;;17.65;;
43801;SDS011;29429;51.074;13.764;2022-08-25T04:01:29;21.63;;;16.27;;
43801;SDS011;29429;51.074;13.764;2022-08-25T04:03:56;21.30;;;16.27;;
43801;SDS011;29429;51.074;13.764;2022-08-25T04:06:23;23.10;;;16.48;;
43801;SDS011;29429;51.074;13.764;2022-08-25T04:08:50;19.30;;;16.95;;
43801;SDS011;29429;51.074;13.764;2022-08-25T04:11:19;22.35;;;17.98;;
43801;SDS011;29429;51.074;13.764;2022-08-25T04:13:48;23.88;;;18.20;;
43801;SDS011;29429;51.074;13.764;2022-08-25T04:16:18;24.15;;;16.92;;
43801;SDS011;29429;51.074;13.764;2022-08-25T04:18:49;22.67;;;17.30;;
43801;SDS011;29429;51.074;13.764;2022-08-25T04:21:20;25.55;;;18.92;;
43801;SDS011;29429;51.074;13.764;2022-08-25T04:23:48;20.90;;;17.38;;
43801;SDS011;29429;51.074;13.764;2022-08-25T04:26:18;22.33;;;18.15;;
43801;SDS011;29429;51.074;13.764;2022-08-25T04:28:51;24.60;;;19.08;;
43801;SDS011;29429;51.074;13.764;2022-08-25T04:31:19;22.30;;;18.75;;
43801;SDS011;29429;51.074;13.764;2022-08-25T04:33:47;20.15;;;17.38;;
43801;SDS011;29429;51.074;13.764;2022-08-25T04:36:15;22.33;;;17.33;;
43801;SDS011;29429;51.074;13.764;2022-08-25T04:38:44;22.50;;;18.27;;
43801;SDS011;29429;51.074;13.764;2022-08-25T04:41:13;24.05;;;17.70;;
43801;SDS011;29429;51.074;13.764;2022-08-25T04:43:43;24.95;;;17.40;;
43801;SDS011;29429;51.074;13.764;2022-08-25T04:46:15;24.27;;;17.58;;
43801;SDS011;29429;51.074;13.764;2022-08-25T04:48:53;20.75;;;16.08;;
43801;SDS011;29429;51.074;13.764;2022-08-25T04:51:23;21.27;;;16.35;;
43801;SDS011;29429;51.074;13.764;2022-08-25T04:54:02;21.40;;;16.75;;
43801;SDS011;29429;51.074;13.764;2022-08-25T04:56:33;19.77;;;16.63;;
43801;SDS011;29429;51.074;13.764;2022-08-25T04:59:02;20.90;;;16.58;;
43801;SDS011;29429;51.074;13.764;2022-08-25T05:01:35;20.42;;;16.25;;
43801;SDS011;29429;51.074;13.764;2022-08-25T05:04:04;21.10;;;15.77;;
43801;SDS011;29429;51.074;13.764;2022-08-25T05:06:40;20.75;;;16.90;;
43801;SDS011;29429;51.074;13.764;2022-08-25T05:09:10;20.20;;;17.15;;
43801;SDS011;29429;51.074;13.764;2022-08-25T05:11:37;20.35;;;16.15;;
43801;SDS011;29429;51.074;13.764;2022-08-25T05:14:04;20.55;;;16.13;;
43801;SDS011;29429;51.074;13.764;2022-08-25T05:16:37;21.23;;;16.27;;
43801;SDS011;29429;51.074;13.764;2022-08-25T05:19:05;18.90;;;16.75;;
43801;SDS011;29429;51.074;13.764;2022-08-25T05:21:32;17.80;;;14.77;;
43801;SDS011;29429;51.074;13.764;2022-08-25T05:24:00;16.00;;;14.35;;
43801;SDS011;29429;51.074;13.764;2022-08-25T05:26:28;17.92;;;15.32;;
43801;SDS011;29429;51.074;13.764;2022-08-25T05:28:58;17.75;;;14.45;;
43801;SDS011;29429;51.074;13.764;2022-08-25T05:31:29;16.95;;;13.93;;
43801;SDS011;29429;51.074;13.764;2022-08-25T05:33:58;17.92;;;13.85;;
43801;SDS011;29429;51.074;13.764;2022-08-25T05:36:26;17.40;;;14.15;;
43801;SDS011;29429;51.074;13.764;2022-08-25T05:38:54;18.30;;;14.48;;
43801;SDS011;29429;51.074;13.764;2022-08-25T05:41:24;21.45;;;15.10;;
43801;SDS011;29429;51.074;13.764;2022-08-25T05:43:55;18.42;;;14.77;;
43801;SDS011;29429;51.074;13.764;2022-08-25T05:46:23;16.48;;;13.63;;
43801;SDS011;29429;51.074;13.764;2022-08-25T05:48:51;16.02;;;14.30;;
43801;SDS011;29429;51.074;13.764;2022-08-25T05:51:19;22.45;;;15.90;;
43801;SDS011;29429;51.074;13.764;2022-08-25T05:53:48;19.23;;;14.88;;
43801;SDS011;29429;51.074;13.764;2022-08-25T05:56:16;16.95;;;13.90;;
43801;SDS011;29429;51.074;13.764;2022-08-25T05:58:44;17.38;;;14.30;;
43801;SDS011;29429;51.074;13.764;2022-08-25T06:01:22;18.27;;;15.15;;
43801;SDS011;29429;51.074;13.764;2022-08-25T06:04:12;20.85;;;15.38;;
43801;SDS011;29429;51.074;13.764;2022-08-25T06:06:41;20.23;;;16.80;;
43801;SDS011;29429;51.074;13.764;2022-08-25T06:09:09;18.58;;;16.20;;
43801;SDS011;29429;51.074;13.764;2022-08-25T06:11:37;19.15;;;15.63;;
43801;SDS011;29429;51.074;13.764;2022-08-25T06:14:06;22.05;;;16.90;;
43801;SDS011;29429;51.074;13.764;2022-08-25T06:16:36;23.95;;;17.35;;
43801;SDS011;29429;51.074;13.764;2022-08-25T06:19:04;29.58;;;17.70;;
43801;SDS011;29429;51.074;13.764;2022-08-25T06:21:34;19.77;;;15.95;;
43801;SDS011;29429;51.074;13.764;2022-08-25T06:24:04;17.58;;;15.50;;
43801;SDS011;29429;51.074;13.764;2022-08-25T06:26:36;18.70;;;15.25;;
43801;SDS011;29429;51.074;13.764;2022-08-25T06:29:03;21.42;;;16.05;;
43801;SDS011;29429;51.074;13.764;2022-08-25T06:31:30;19.67;;;16.15;;
43801;SDS011;29429;51.074;13.764;2022-08-25T06:33:57;22.27;;;15.60;;
43801;SDS011;29429;51.074;13.764;2022-08-25T06:36:24;21.48;;;15.10;;
43801;SDS011;29429;51.074;13.764;2022-08-25T06:38:51;18.83;;;14.00;;
43801;SDS011;29429;51.074;13.764;2022-08-25T06:41:19;19.02;;;15.20;;
43801;SDS011;29429;51.074;13.764;2022-08-25T06:43:46;20.38;;;16.45;;
43801;SDS011;29429;51.074;13.764;2022-08-25T06:46:21;20.10;;;15.98;;
43801;SDS011;29429;51.074;13.764;2022-08-25T06:49:02;16.38;;;14.35;;
43801;SDS011;29429;51.074;13.764;2022-08-25T06:51:32;23.38;;;15.38;;
43801;SDS011;29429;51.074;13.764;2022-08-25T06:54:02;18.10;;;15.07;;
43801;SDS011;29429;51.074;13.764;2022-08-25T06:56:31;20.55;;;17.00;;
43801;SDS011;29429;51.074;13.764;2022-08-25T06:59:00;18.88;;;14.90;;
43801;SDS011;29429;51.074;13.764;2022-08-25T07:01:31;17.48;;;15.50;;
43801;SDS011;29429;51.074;13.764;2022-08-25T07:04:00;24.05;;;16.80;;
43801;SDS011;29429;51.074;13.764;2022-08-25T07:06:37;18.70;;;14.95;;
43801;SDS011;29429;51.074;13.764;2022-08-25T07:09:05;22.45;;;16.63;;
43801;SDS011;29429;51.074;13.764;2022-08-25T07:11:34;24.50;;;19.40;;
43801;SDS011;29429;51.074;13.764;2022-08-25T07:14:01;26.60;;;20.00;;
43801;SDS011;29429;51.074;13.764;2022-08-25T07:16:30;22.50;;;18.13;;
43801;SDS011;29429;51.074;13.764;2022-08-25T07:18:59;24.77;;;18.35;;
43801;SDS011;29429;51.074;13.764;2022-08-25T07:21:30;23.02;;;18.15;;
43801;SDS011;29429;51.074;13.764;2022-08-25T07:24:03;21.65;;;17.98;;
43801;SDS011;29429;51.074;13.764;2022-08-25T07:26:34;22.50;;;18.13;;
43801;SDS011;29429;51.074;13.764;2022-08-25T07:29:24;22.70;;;18.10;;
43801;SDS011;29429;51.074;13.764;2022-08-25T07:32:01;30.02;;;19.13;;
43801;SDS011;29429;51.074;13.764;2022-08-25T07:34:29;27.77;;;18.00;;
43801;SDS011;29429;51.074;13.764;2022-08-25T07:37:36;20.08;;;16.15;;
43801;SDS011;29429;51.074;13.764;2022-08-25T07:40:19;18.42;;;16.42;;
43801;SDS011;29429;51.074;13.764;2022-08-25T07:42:54;19.30;;;15.98;;
43801;SDS011;29429;51.074;13.764;2022-08-25T07:45:25;20.50;;;15.57;;
43801;SDS011;29429;51.074;13.764;2022-08-25T07:48:04;21.80;;;14.35;;
43801;SDS011;29429;51.074;13.764;2022-08-25T07:50:39;16.42;;;14.27;;
43801;SDS011;29429;51.074;13.764;2022-08-25T07:53:11;18.17;;;15.32;;
43801;SDS011;29429;51.074;13.764;2022-08-25T07:55:40;18.35;;;15.38;;
43801;SDS011;29429;51.074;13.764;2022-08-25T07:58:10;16.88;;;14.68;;
43801;SDS011;29429;51.074;13.764;2022-08-25T08:00:37;18.83;;;15.13;;
43801;SDS011;29429;51.074;13.764;2022-08-25T08:03:08;15.60;;;13.82;;
43801;SDS011;29429;51.074;13.764;2022-08-25T08:05:55;16.95;;;14.05;;
43801;SDS011;29429;51.074;13.764;2022-08-25T08:08:22;18.05;;;14.32;;
43801;SDS011;29429;51.074;13.764;2022-08-25T08:10:49;17.77;;;15.55;;
43801;SDS011;29429;51.074;13.764;2022-08-25T08:13:31;20.23;;;16.20;;
43801;SDS011;29429;51.074;13.764;2022-08-25T08:16:09;21.52;;;16.27;;
43801;SDS011;29429;51.074;13.764;2022-08-25T08:18:38;15.95;;;14.25;;
43801;SDS011;29429;51.074;13.764;2022-08-25T08:21:12;21.67;;;15.60;;
43801;SDS011;29429;51.074;13.764;2022-08-25T08:23:45;16.90;;;14.50;;
43801;SDS011;29429;51.074;13.764;2022-08-25T08:26:14;14.80;;;13.35;;
43801;SDS011;29429;51.074;13.764;2022-08-25T08:28:42;16.33;;;13.55;;
43801;SDS011;29429;51.074;13.764;2022-08-25T08:31:21;15.18;;;13.55;;
43801;SDS011;29429;51.074;13.764;2022-08-25T08:33:52;14.15;;;12.73;;
43801;SDS011;29429;51.074;13.764;2022-08-25T08:36:21;13.75;;;12.35;;
43801;SDS011;29429;51.074;13.764;2022-08-25T08:38:50;17.50;;;14.43;;
43801;SDS011;29429;51.074;13.764;2022-08-25T08:44:41;15.35;;;13.73;;
43801;SDS011;29429;51.074;13.764;2022-08-25T08:47:41;18.38;;;14.18;;
43801;SDS011;29429;51.074;13.764;2022-08-25T08:56:25;15.00;;;13.38;;
43801;SDS011;29429;51.074;13.764;2022-08-25T08:59:02;16.67;;;13.32;;
43801;SDS011;29429;51.074;13.764;2022-08-25T09:01:33;18.95;;;13.25;;
43801;SDS011;29429;51.074;13.764;2022-08-25T09:04:24;18.52;;;13.82;;
43801;SDS011;29429;51.074;13.764;2022-08-25T09:07:02;17.20;;;13.60;;
43801;SDS011;29429;51.074;13.764;2022-08-25T09:09:46;15.45;;;13.43;;
43801;SDS011;29429;51.074;13.764;2022-08-25T09:12:34;16.27;;;11.98;;
43801;SDS011;29429;51.074;13.764;2022-08-25T09:18:40;16.05;;;12.05;;
43801;SDS011;29429;51.074;13.764;2022-08-25T09:21:34;15.85;;;11.10;;
43801;SDS011;29429;51.074;13.764;2022-08-25T09:24:25;16.92;;;11.18;;
43801;SDS011;29429;51.074;13.764;2022-08-25T09:27:39;16.60;;;11.93;;
43801;SDS011;29429;51.074;13.764;2022-08-25T09:33:05;14.15;;;9.98;;
43801;SDS011;29429;51.074;13.764;2022-08-25T09:35:35;18.40;;;10.93;;
43801;SDS011;29429;51.074;13.764;2022-08-25T09:38:07;11.02;;;9.88;;
43801;SDS011;29429;51.074;13.764;2022-08-25T09:40:39;16.73;;;10.55;;
43801;SDS011;29429;51.074;13.764;2022-08-25T09:43:18;15.73;;;10.20;;
43801;SDS011;29429;51.074;13.764;2022-08-25T09:45:54;13.43;;;10.48;;
43801;SDS011;29429;51.074;13.764;2022-08-25T09:48:53;11.25;;;9.00;;
43801;SDS011;29429;51.074;13.764;2022-08-25T09:51:25;15.30;;;9.68;;
43801;SDS011;29429;51.074;13.764;2022-08-25T09:56:48;14.55;;;8.30;;
43801;SDS011;29429;51.074;13.764;2022-08-25T10:02:03;14.20;;;7.20;;
43801;SDS011;29429;51.074;13.764;2022-08-25T10:04:51;12.30;;;7.43;;
43801;SDS011;29429;51.074;13.764;2022-08-25T10:10:04;24.98;;;8.02;;
43801;SDS011;29429;51.074;13.764;2022-08-25T10:12:48;19.08;;;6.90;;
43801;SDS011;29429;51.074;13.764;2022-08-25T10:15:27;14.95;;;6.60;;
43801;SDS011;29429;51.074;13.764;2022-08-25T10:21:11;17.13;;;6.55;;
43801;SDS011;29429;51.074;13.764;2022-08-25T10:23:46;16.02;;;6.82;;
43801;SDS011;29429;51.074;13.764;2022-08-25T10:26:27;18.63;;;7.22;;
43801;SDS011;29429;51.074;13.764;2022-08-25T10:32:22;17.45;;;7.03;;
43801;SDS011;29429;51.074;13.764;2022-08-25T10:35:14;19.00;;;6.63;;
43801;SDS011;29429;51.074;13.764;2022-08-25T10:49:54;20.38;;;6.75;;
43801;SDS011;29429;51.074;13.764;2022-08-25T10:55:31;20.83;;;8.25;;
43801;SDS011;29429;51.074;13.764;2022-08-25T11:01:17;17.10;;;6.50;;
43801;SDS011;29429;51.074;13.764;2022-08-25T11:04:21;16.02;;;6.15;;
43801;SDS011;29429;51.074;13.764;2022-08-25T11:09:37;18.85;;;6.85;;
43801;SDS011;29429;51.074;13.764;2022-08-25T11:12:26;18.15;;;6.85;;
43801;SDS011;29429;51.074;13.764;2022-08-25T11:15:01;16.52;;;6.72;;
43801;SDS011;29429;51.074;13.764;2022-08-25T11:17:41;18.15;;;7.25;;
43801;SDS011;29429;51.074;13.764;2022-08-25T11:20:32;20.15;;;7.05;;
43801;SDS011;29429;51.074;13.764;2022-08-25T11:23:16;15.45;;;6.25;;
43801;SDS011;29429;51.074;13.764;2022-08-25T11:26:09;17.02;;;6.60;;
43801;SDS011;29429;51.074;13.764;2022-08-25T11:31:42;16.20;;;6.20;;
43801;SDS011;29429;51.074;13.764;2022-08-25T11:34:19;18.55;;;6.57;;
43801;SDS011;29429;51.074;13.764;2022-08-25T11:36:49;20.38;;;6.28;;
43801;SDS011;29429;51.074;13.764;2022-08-25T11:45:59;18.40;;;6.22;;
43801;SDS011;29429;51.074;13.764;2022-08-25T11:51:57;18.08;;;6.43;;
43801;SDS011;29429;51.074;13.764;2022-08-25T11:54:29;16.88;;;6.32;;
43801;SDS011;29429;51.074;13.764;2022-08-25T11:57:08;15.38;;;6.10;;
43801;SDS011;29429;51.074;13.764;2022-08-25T12:02:34;19.77;;;6.22;;
43801;SDS011;29429;51.074;13.764;2022-08-25T12:12:57;20.40;;;6.55;;
43801;SDS011;29429;51.074;13.764;2022-08-25T12:15:52;17.67;;;5.78;;
43801;SDS011;29429;51.074;13.764;2022-08-25T12:23:26;15.25;;;6.70;;
43801;SDS011;29429;51.074;13.764;2022-08-25T12:26:00;16.83;;;5.43;;
43801;SDS011;29429;51.074;13.764;2022-08-25T12:28:44;22.27;;;6.28;;
43801;SDS011;29429;51.074;13.764;2022-08-25T12:37:51;18.85;;;6.40;;
43801;SDS011;29429;51.074;13.764;2022-08-25T12:40:24;13.38;;;5.30;;
43801;SDS011;29429;51.074;13.764;2022-08-25T12:43:03;19.13;;;6.03;;
43801;SDS011;29429;51.074;13.764;2022-08-25T12:52:06;16.05;;;5.78;;
43801;SDS011;29429;51.074;13.764;2022-08-25T12:54:45;15.35;;;5.68;;
43801;SDS011;29429;51.074;13.764;2022-08-25T13:00:22;16.80;;;6.10;;
43801;SDS011;29429;51.074;13.764;2022-08-25T13:12:12;16.25;;;5.65;;
43801;SDS011;29429;51.074;13.764;2022-08-25T13:14:53;16.67;;;5.65;;
43801;SDS011;29429;51.074;13.764;2022-08-25T13:17:27;15.27;;;5.43;;
43801;SDS011;29429;51.074;13.764;2022-08-25T13:20:18;18.52;;;6.18;;
43801;SDS011;29429;51.074;13.764;2022-08-25T13:22:52;18.88;;;5.70;;
43801;SDS011;29429;51.074;13.764;2022-08-25T13:25:26;21.05;;;5.68;;
43801;SDS011;29429;51.074;13.764;2022-08-25T13:27:58;21.17;;;5.55;;
43801;SDS011;29429;51.074;13.764;2022-08-25T13:30:31;19.50;;;5.55;;
43801;SDS011;29429;51.074;13.764;2022-08-25T13:33:15;18.35;;;7.60;;
43801;SDS011;29429;51.074;13.764;2022-08-25T13:35:48;19.42;;;6.05;;
43801;SDS011;29429;51.074;13.764;2022-08-25T13:38:43;20.88;;;6.00;;
43801;SDS011;29429;51.074;13.764;2022-08-25T13:41:16;19.52;;;6.60;;
43801;SDS011;29429;51.074;13.764;2022-08-25T13:43:54;17.92;;;5.65;;
43801;SDS011;29429;51.074;13.764;2022-08-25T13:46:26;16.85;;;6.15;;
43801;SDS011;29429;51.074;13.764;2022-08-25T13:49:01;22.13;;;6.57;;
43801;SDS011;29429;51.074;13.764;2022-08-25T13:51:34;21.35;;;6.63;;
43801;SDS011;29429;51.074;13.764;2022-08-25T13:54:04;17.85;;;6.82;;
43801;SDS011;29429;51.074;13.764;2022-08-25T13:56:45;19.83;;;6.75;;
43801;SDS011;29429;51.074;13.764;2022-08-25T13:59:23;18.92;;;6.63;;
43801;SDS011;29429;51.074;13.764;2022-08-25T14:02:05;21.90;;;6.82;;
43801;SDS011;29429;51.074;13.764;2022-08-25T14:04:45;14.30;;;6.43;;
43801;SDS011;29429;51.074;13.764;2022-08-25T14:09:59;19.77;;;6.57;;
43801;SDS011;29429;51.074;13.764;2022-08-25T14:12:40;19.88;;;6.63;;
43801;SDS011;29429;51.074;13.764;2022-08-25T14:20:43;15.27;;;6.18;;
43801;SDS011;29429;51.074;13.764;2022-08-25T14:23:17;16.60;;;5.85;;
43801;SDS011;29429;51.074;13.764;2022-08-25T14:25:48;23.92;;;7.03;;
43801;SDS011;29429;51.074;13.764;2022-08-25T14:28:18;16.52;;;6.25;;
43801;SDS011;29429;51.074;13.764;2022-08-25T14:30:52;13.05;;;5.47;;
43801;SDS011;29429;51.074;13.764;2022-08-25T14:33:25;17.55;;;5.97;;
43801;SDS011;29429;51.074;13.764;2022-08-25T14:36:05;20.35;;;6.00;;
43801;SDS011;29429;51.074;13.764;2022-08-25T14:38:32;14.25;;;5.40;;
43801;SDS011;29429;51.074;13.764;2022-08-25T14:41:20;16.65;;;5.60;;
43801;SDS011;29429;51.074;13.764;2022-08-25T14:43:49;20.33;;;6.60;;
43801;SDS011;29429;51.074;13.764;2022-08-25T14:46:21;15.98;;;5.93;;
43801;SDS011;29429;51.074;13.764;2022-08-25T14:48:59;22.17;;;6.30;;
43801;SDS011;29429;51.074;13.764;2022-08-25T14:51:32;18.52;;;5.82;;
43801;SDS011;29429;51.074;13.764;2022-08-25T14:54:03;23.52;;;6.47;;
43801;SDS011;29429;51.074;13.764;2022-08-25T14:56:36;21.45;;;6.20;;
43801;SDS011;29429;51.074;13.764;2022-08-25T14:59:08;14.52;;;5.47;;
43801;SDS011;29429;51.074;13.764;2022-08-25T15:01:35;25.92;;;6.50;;
43801;SDS011;29429;51.074;13.764;2022-08-25T15:04:12;17.02;;;6.03;;
43801;SDS011;29429;51.074;13.764;2022-08-25T15:06:45;18.23;;;7.22;;
43801;SDS011;29429;51.074;13.764;2022-08-25T15:09:23;21.88;;;6.25;;
43801;SDS011;29429;51.074;13.764;2022-08-25T15:11:58;20.45;;;6.53;;
43801;SDS011;29429;51.074;13.764;2022-08-25T15:14:25;19.38;;;6.25;;
43801;SDS011;29429;51.074;13.764;2022-08-25T15:16:58;17.38;;;6.70;;
43801;SDS011;29429;51.074;13.764;2022-08-25T15:19:27;16.85;;;6.45;;
43801;SDS011;29429;51.074;13.764;2022-08-25T15:21:54;24.95;;;6.18;;
43801;SDS011;29429;51.074;13.764;2022-08-25T15:24:24;21.85;;;6.22;;
43801;SDS011;29429;51.074;13.764;2022-08-25T15:26:53;18.65;;;6.13;;
43801;SDS011;29429;51.074;13.764;2022-08-25T15:29:24;20.25;;;6.47;;
43801;SDS011;29429;51.074;13.764;2022-08-25T15:31:56;22.27;;;6.63;;
43801;SDS011;29429;51.074;13.764;2022-08-25T15:34:25;23.20;;;7.82;;
43801;SDS011;29429;51.074;13.764;2022-08-25T15:36:53;22.65;;;6.65;;
43801;SDS011;29429;51.074;13.764;2022-08-25T15:39:24;18.05;;;6.53;;
43801;SDS011;29429;51.074;13.764;2022-08-25T15:41:52;18.63;;;6.85;;
43801;SDS011;29429;51.074;13.764;2022-08-25T15:44:19;19.45;;;7.18;;
43801;SDS011;29429;51.074;13.764;2022-08-25T15:46:51;17.25;;;6.43;;
43801;SDS011;29429;51.074;13.764;2022-08-25T15:49:21;12.43;;;6.07;;
43801;SDS011;29429;51.074;13.764;2022-08-25T15:51:50;18.80;;;7.03;;
43801;SDS011;29429;51.074;13.764;2022-08-25T15:54:20;17.10;;;6.45;;
43801;SDS011;29429;51.074;13.764;2022-08-25T15:56:48;16.02;;;6.85;;
43801;SDS011;29429;51.074;13.764;2022-08-25T15:59:18;18.73;;;6.25;;
43801;SDS011;29429;51.074;13.764;2022-08-25T16:01:47;13.48;;;6.82;;
43801;SDS011;29429;51.074;13.764;2022-08-25T16:04:14;19.13;;;7.22;;
43801;SDS011;29429;51.074;13.764;2022-08-25T16:06:43;22.23;;;7.38;;
43801;SDS011;29429;51.074;13.764;2022-08-25T16:09:10;17.63;;;7.40;;
43801;SDS011;29429;51.074;13.764;2022-08-25T16:11:37;12.85;;;6.55;;
43801;SDS011;29429;51.074;13.764;2022-08-25T16:14:04;18.38;;;7.80;;
43801;SDS011;29429;51.074;13.764;2022-08-25T16:16:31;19.95;;;7.95;;
43801;SDS011;29429;51.074;13.764;2022-08-25T16:18:59;17.98;;;7.70;;
43801;SDS011;29429;51.074;13.764;2022-08-25T16:21:30;19.42;;;7.13;;
43801;SDS011;29429;51.074;13.764;2022-08-25T16:24:07;19.25;;;6.80;;
43801;SDS011;29429;51.074;13.764;2022-08-25T16:26:35;17.40;;;7.32;;
43801;SDS011;29429;51.074;13.764;2022-08-25T16:29:14;16.55;;;7.40;;
43801;SDS011;29429;51.074;13.764;2022-08-25T16:31:42;19.17;;;7.38;;
43801;SDS011;29429;51.074;13.764;2022-08-25T16:34:18;14.45;;;7.22;;
43801;SDS011;29429;51.074;13.764;2022-08-25T16:36:45;21.40;;;7.60;;
43801;SDS011;29429;51.074;13.764;2022-08-25T16:39:17;15.35;;;6.68;;
43801;SDS011;29429;51.074;13.764;2022-08-25T16:41:45;20.50;;;7.38;;
43801;SDS011;29429;51.074;13.764;2022-08-25T16:44:13;21.05;;;8.07;;